createdAt,value
2022-10-07T00:00:56.651Z,12.60
2022-10-07T00:03:48.791Z,12.60
2022-10-07T00:06:40.999Z,12.60
2022-10-07T00:09:33.144Z,12.60
2022-10-07T00:12:25.657Z,12.50
2022-10-07T00:15:18.088Z,12.40
2022-10-07T00:18:10.355Z,12.50
2022-10-07T00:21:04.895Z,12.50
2022-10-07T00:23:58.353Z,12.50
2022-10-07T00:26:50.478Z,12.50
2022-10-07T00:29:42.592Z,12.50
2022-10-07T00:32:34.806Z,12.20
2022-10-07T00:35:26.989Z,12.00
2022-10-07T00:38:19.068Z,11.70
2022-10-07T00:41:18.995Z,11.40
2022-10-07T00:44:32.193Z,11.30
2022-10-07T00:47:28.197Z,11.20
2022-10-07T00:50:29.495Z,11.20
2022-10-07T00:53:24.658Z,11.10
2022-10-07T00:56:17.950Z,11.10
2022-10-07T00:59:11.070Z,11.10
2022-10-07T01:02:03.923Z,11.10
2022-10-07T01:04:59.114Z,11.20
2022-10-07T01:07:54.053Z,11.30
2022-10-07T01:11:20.535Z,11.40
2022-10-07T01:14:35.752Z,11.60
2022-10-07T01:17:46.332Z,11.90
2022-10-07T01:20:57.936Z,12.10
2022-10-07T01:24:18.738Z,12.20
2022-10-07T01:27:16.436Z,12.30
2022-10-07T01:30:09.384Z,12.20
2022-10-07T01:33:05.842Z,12.20
2022-10-07T01:36:04.846Z,12.20
2022-10-07T01:39:02.791Z,12.20
2022-10-07T01:41:55.135Z,12.20
2022-10-07T01:44:51.117Z,12.10
2022-10-07T01:47:43.488Z,12.10
2022-10-07T01:50:36.926Z,12.10
2022-10-07T01:53:31.800Z,12.00
2022-10-07T01:56:41.326Z,12.00
2022-10-07T02:00:06.141Z,12.00
2022-10-07T02:03:35.147Z,11.90
2022-10-07T02:06:43.843Z,11.90
2022-10-07T02:09:39.356Z,11.70
2022-10-07T02:12:43.449Z,11.70
2022-10-07T02:16:21.715Z,11.70
2022-10-07T02:19:25.424Z,11.70
2022-10-07T02:22:19.660Z,11.70
2022-10-07T02:25:13.851Z,11.70
2022-10-07T02:28:09.403Z,11.70
2022-10-07T02:31:03.700Z,11.60
2022-10-07T02:33:57.505Z,11.50
2022-10-07T02:37:05.025Z,11.60
2022-10-07T02:39:58.067Z,11.60
2022-10-07T02:43:03.566Z,11.60
2022-10-07T02:46:03.747Z,11.60
2022-10-07T02:49:00.616Z,11.50
2022-10-07T02:52:05.374Z,11.50
2022-10-07T02:55:01.999Z,11.40
2022-10-07T02:57:59.096Z,11.40
2022-10-07T03:00:55.592Z,11.40
2022-10-07T03:03:48.081Z,11.30
2022-10-07T03:06:42.912Z,11.30
2022-10-07T03:09:35.219Z,11.40
2022-10-07T03:12:28.943Z,11.30
2022-10-07T03:15:22.080Z,11.30
2022-10-07T03:18:29.482Z,11.30
2022-10-07T03:21:22.666Z,11.30
2022-10-07T03:24:14.745Z,11.30
2022-10-07T03:27:07.615Z,11.30
2022-10-07T03:29:59.776Z,11.40
2022-10-07T03:32:52.191Z,11.30
2022-10-07T03:35:44.397Z,11.30
2022-10-07T03:38:36.824Z,11.30
2022-10-07T03:41:28.980Z,11.40
2022-10-07T03:44:22.532Z,11.30
2022-10-07T03:47:16.949Z,11.30
2022-10-07T03:50:09.365Z,11.40
2022-10-07T03:53:01.473Z,11.30
2022-10-07T03:55:53.625Z,11.30
2022-10-07T03:58:45.752Z,11.30
2022-10-07T04:01:38.180Z,11.40
2022-10-07T04:04:31.018Z,11.30
2022-10-07T04:07:23.163Z,11.30
2022-10-07T04:10:17.212Z,11.20
2022-10-07T04:13:09.312Z,10.70
2022-10-07T04:16:10.317Z,10.30
2022-10-07T04:19:02.896Z,10.10
2022-10-07T04:21:55.000Z,9.90
2022-10-07T04:25:07.060Z,9.80
2022-10-07T04:28:00.823Z,9.70
2022-10-07T04:30:54.227Z,9.80
2022-10-07T04:33:46.532Z,9.70
2022-10-07T04:36:38.723Z,9.80
2022-10-07T04:39:56.024Z,9.80
2022-10-07T04:43:01.499Z,10.10
2022-10-07T04:46:00.238Z,10.10
2022-10-07T04:48:52.350Z,10.10
2022-10-07T04:51:44.464Z,10.00
2022-10-07T04:54:36.578Z,9.80
2022-10-07T04:57:28.717Z,9.70
2022-10-07T05:00:20.807Z,9.80
2022-10-07T05:03:14.078Z,9.90
2022-10-07T05:06:06.587Z,9.50
2022-10-07T05:08:58.735Z,9.40
2022-10-07T05:11:55.678Z,9.40
2022-10-07T05:14:47.782Z,9.40
2022-10-07T05:17:41.104Z,9.50
2022-10-07T05:20:35.335Z,9.70
2022-10-07T05:23:28.971Z,9.80
2022-10-07T05:26:21.244Z,10.10
2022-10-07T05:29:13.438Z,10.90
2022-10-07T05:32:05.631Z,11.60
2022-10-07T05:34:57.798Z,12.00
2022-10-07T05:37:53.835Z,12.40
2022-10-07T05:40:46.172Z,12.80
2022-10-07T05:43:42.157Z,13.10
2022-10-07T05:46:34.264Z,13.60
2022-10-07T05:49:27.824Z,15.70
2022-10-07T05:52:21.155Z,17.70
2022-10-07T05:55:13.316Z,19.40
2022-10-07T05:58:05.544Z,20.90
2022-10-07T06:01:04.855Z,21.90
2022-10-07T06:03:58.389Z,23.00
2022-10-07T06:06:50.501Z,24.30
2022-10-07T06:10:01.120Z,25.00
2022-10-07T06:13:13.489Z,25.80
2022-10-07T06:16:08.155Z,26.30
2022-10-07T06:19:00.332Z,27.10
2022-10-07T06:21:52.518Z,27.30
2022-10-07T06:24:45.326Z,27.70
2022-10-07T06:27:37.506Z,28.10
2022-10-07T06:30:29.766Z,28.00
2022-10-07T06:33:21.971Z,28.00
2022-10-07T06:36:14.464Z,28.00
2022-10-07T06:39:06.722Z,27.70
2022-10-07T06:41:58.826Z,27.60
2022-10-07T06:44:53.776Z,27.60
2022-10-07T06:47:46.097Z,27.30
2022-10-07T06:50:38.594Z,27.40
2022-10-07T06:53:31.391Z,27.10
2022-10-07T06:56:23.770Z,26.50
2022-10-07T06:59:15.954Z,26.20
2022-10-07T07:02:11.660Z,26.10
2022-10-07T07:05:08.592Z,25.40
2022-10-07T07:08:00.823Z,24.50
2022-10-07T07:10:52.972Z,24.10
2022-10-07T07:13:46.038Z,24.00
2022-10-07T07:16:38.880Z,24.00
2022-10-07T07:19:31.062Z,23.80
2022-10-07T07:22:23.179Z,23.50
2022-10-07T07:25:15.500Z,23.30
2022-10-07T07:28:08.269Z,22.80
2022-10-07T07:31:00.562Z,22.30
2022-10-07T07:33:53.117Z,22.00
2022-10-07T07:36:48.350Z,21.60
2022-10-07T07:39:40.770Z,21.40
2022-10-07T07:42:33.166Z,21.60
2022-10-07T07:45:25.288Z,21.40
2022-10-07T07:48:17.915Z,21.80
2022-10-07T07:51:10.250Z,22.00
2022-10-07T07:54:02.613Z,22.10
2022-10-07T07:56:56.741Z,22.50
2022-10-07T07:59:48.874Z,22.50
2022-10-07T08:02:41.209Z,22.10
2022-10-07T08:05:35.049Z,21.90
2022-10-07T08:08:27.492Z,21.90
2022-10-07T08:11:21.019Z,22.20
2022-10-07T08:14:14.481Z,22.40
2022-10-07T08:17:06.600Z,22.40
2022-10-07T08:19:59.401Z,22.70
2022-10-07T08:22:55.611Z,22.60
2022-10-07T08:25:54.795Z,22.30
2022-10-07T08:28:49.052Z,22.30
2022-10-07T08:31:42.635Z,21.90
2022-10-07T08:34:36.480Z,21.50
2022-10-07T08:37:28.664Z,21.30
2022-10-07T08:40:20.826Z,21.00
2022-10-07T08:43:13.191Z,20.60
2022-10-07T08:46:06.110Z,20.70
2022-10-07T08:49:15.384Z,20.60
2022-10-07T08:52:39.782Z,20.50
2022-10-07T08:55:43.795Z,20.00
2022-10-07T08:58:52.752Z,19.90
2022-10-07T09:01:47.971Z,20.10
2022-10-07T09:04:54.215Z,20.20
2022-10-07T09:08:01.166Z,19.90
2022-10-07T09:10:54.373Z,19.80
2022-10-07T09:13:54.726Z,19.80
2022-10-07T09:16:48.050Z,20.20
2022-10-07T09:19:45.079Z,20.20
2022-10-07T09:22:42.489Z,20.00
2022-10-07T09:25:34.913Z,20.20
2022-10-07T09:28:30.655Z,20.30
2022-10-07T09:31:24.778Z,20.30
2022-10-07T09:34:26.116Z,20.60
2022-10-07T09:37:23.763Z,20.80
2022-10-07T09:40:36.075Z,20.70
2022-10-07T09:43:33.608Z,20.60
2022-10-07T09:46:49.434Z,20.60
2022-10-07T09:49:45.320Z,20.70
2022-10-07T09:52:37.484Z,20.60
2022-10-07T09:55:38.481Z,20.50
2022-10-07T09:58:32.054Z,20.50
2022-10-07T10:01:24.154Z,20.50
2022-10-07T10:04:23.312Z,20.50
2022-10-07T10:07:28.260Z,20.60
2022-10-07T10:10:29.180Z,20.80
2022-10-07T10:13:34.638Z,20.90
2022-10-07T10:16:29.955Z,20.60
2022-10-07T10:19:28.393Z,20.60
2022-10-07T10:22:29.909Z,20.90
2022-10-07T10:25:46.172Z,20.90
2022-10-07T10:28:45.555Z,20.90
2022-10-07T10:32:01.867Z,20.70
2022-10-07T10:35:24.657Z,20.80
2022-10-07T10:38:46.965Z,20.80
2022-10-07T10:41:50.690Z,20.90
2022-10-07T10:45:00.386Z,20.90
2022-10-07T10:48:07.229Z,21.10
2022-10-07T10:51:34.116Z,21.20
2022-10-07T10:54:40.170Z,21.20
2022-10-07T10:58:00.531Z,21.20
2022-10-07T11:01:11.318Z,21.10
2022-10-07T11:04:15.211Z,21.00
2022-10-07T11:07:28.731Z,20.90
2022-10-07T11:10:50.812Z,21.20
2022-10-07T11:13:55.750Z,21.30
2022-10-07T11:17:03.497Z,21.40
2022-10-07T11:20:31.243Z,21.40
2022-10-07T11:23:36.421Z,21.30
2022-10-07T11:26:41.140Z,21.10
2022-10-07T11:30:15.542Z,21.20
2022-10-07T11:33:17.832Z,21.30
2022-10-07T11:36:26.407Z,21.30
2022-10-07T11:39:18.901Z,21.20
2022-10-07T11:42:26.337Z,21.10
2022-10-07T11:45:33.527Z,21.10
2022-10-07T11:48:41.000Z,21.30
2022-10-07T11:51:59.579Z,21.20
2022-10-07T11:55:03.708Z,21.20
2022-10-07T11:57:58.682Z,21.30
2022-10-07T12:00:51.080Z,21.20
2022-10-07T12:03:47.513Z,21.20
2022-10-07T12:06:39.650Z,21.30
2022-10-07T12:09:59.432Z,21.20
2022-10-07T12:13:21.824Z,21.10
2022-10-07T12:16:32.164Z,21.10
2022-10-07T12:19:24.406Z,21.10
2022-10-07T12:22:17.841Z,20.90
2022-10-07T12:25:32.400Z,20.90
2022-10-07T12:28:42.548Z,20.90
2022-10-07T12:31:46.853Z,21.00
2022-10-07T12:34:41.314Z,20.90
2022-10-07T12:37:46.340Z,21.00
2022-10-07T12:40:39.530Z,21.10
2022-10-07T12:43:47.593Z,21.10
2022-10-07T12:46:53.954Z,21.20
2022-10-07T12:49:48.876Z,21.00
2022-10-07T12:52:52.169Z,20.90
2022-10-07T12:55:50.275Z,20.90
2022-10-07T12:59:17.188Z,21.00
2022-10-07T13:02:37.025Z,21.00
2022-10-07T13:06:06.497Z,21.10
2022-10-07T13:09:36.070Z,21.10
2022-10-07T13:12:46.564Z,21.00
2022-10-07T13:15:49.537Z,21.00
2022-10-07T13:18:41.655Z,21.00
2022-10-07T13:21:41.621Z,21.00
2022-10-07T13:24:33.967Z,20.90
2022-10-07T13:27:32.101Z,20.90
2022-10-07T13:30:41.092Z,20.90
2022-10-07T13:33:34.188Z,20.80
2022-10-07T13:36:34.918Z,20.70
2022-10-07T13:39:27.091Z,20.70
2022-10-07T13:42:21.404Z,20.60
2022-10-07T13:45:15.812Z,20.60
2022-10-07T13:48:16.100Z,20.80
2022-10-07T13:51:13.639Z,20.80
2022-10-07T13:54:18.376Z,20.70
2022-10-07T13:57:13.110Z,20.60
2022-10-07T14:00:07.659Z,20.60
2022-10-07T14:03:01.884Z,20.60
2022-10-07T14:05:54.286Z,20.50
2022-10-07T14:08:52.493Z,20.50
2022-10-07T14:11:46.694Z,20.60
2022-10-07T14:14:42.258Z,20.60
2022-10-07T14:17:40.969Z,20.60
2022-10-07T14:20:50.151Z,20.60
2022-10-07T14:23:43.032Z,20.50
2022-10-07T14:26:45.393Z,20.50
2022-10-07T14:29:38.072Z,20.50
2022-10-07T14:32:49.122Z,20.40
2022-10-07T14:35:41.455Z,20.30
2022-10-07T14:38:33.619Z,20.30
2022-10-07T14:41:28.924Z,20.30
2022-10-07T14:44:21.898Z,20.20
2022-10-07T14:47:24.253Z,20.10
2022-10-07T14:50:19.694Z,20.10
2022-10-07T14:53:15.756Z,20.00
2022-10-07T14:56:14.082Z,19.90
2022-10-07T14:59:15.029Z,19.80
2022-10-07T15:02:07.205Z,19.80
2022-10-07T15:04:59.425Z,19.80
2022-10-07T15:07:51.741Z,19.80
2022-10-07T15:10:43.953Z,19.70
2022-10-07T15:13:36.062Z,19.60
2022-10-07T15:16:28.773Z,19.50
2022-10-07T15:19:21.041Z,19.50
2022-10-07T15:22:13.189Z,19.40
2022-10-07T15:25:07.253Z,19.30
2022-10-07T15:28:01.232Z,19.30
2022-10-07T15:31:05.405Z,19.20
2022-10-07T15:33:58.018Z,19.10
2022-10-07T15:36:50.337Z,19.00
2022-10-07T15:39:42.500Z,19.00
2022-10-07T15:42:34.609Z,18.90
2022-10-07T15:45:27.350Z,18.80
2022-10-07T15:48:23.134Z,18.80
2022-10-07T15:51:15.257Z,18.70
2022-10-07T15:54:07.668Z,18.70
2022-10-07T15:56:59.903Z,18.60
2022-10-07T15:59:54.806Z,18.50
2022-10-07T16:02:47.391Z,18.50
2022-10-07T16:05:39.672Z,18.40
2022-10-07T16:08:32.424Z,18.40
2022-10-07T16:11:25.783Z,18.30
2022-10-07T16:14:18.151Z,18.30
2022-10-07T16:17:10.333Z,18.20
2022-10-07T16:20:08.923Z,18.20
2022-10-07T16:23:03.132Z,18.10
2022-10-07T16:25:55.238Z,18.10
2022-10-07T16:29:08.322Z,18.00
2022-10-07T16:32:00.782Z,17.90
2022-10-07T16:34:52.863Z,17.70
2022-10-07T16:37:47.885Z,17.70
2022-10-07T16:40:52.864Z,17.60
2022-10-07T16:43:45.591Z,17.60
2022-10-07T16:46:38.509Z,17.50
2022-10-07T16:49:30.749Z,17.30
2022-10-07T16:52:22.894Z,17.30
2022-10-07T16:55:15.375Z,17.20
2022-10-07T16:58:07.652Z,17.10
2022-10-07T17:01:10.569Z,17.10
2022-10-07T17:04:03.664Z,17.10
2022-10-07T17:06:55.859Z,17.10
2022-10-07T17:09:48.323Z,17.10
2022-10-07T17:12:40.428Z,17.10
2022-10-07T17:15:32.602Z,17.10
2022-10-07T17:18:26.757Z,17.10
2022-10-07T17:21:19.147Z,17.10
2022-10-07T17:24:13.071Z,17.00
2022-10-07T17:27:07.406Z,17.00
2022-10-07T17:29:59.661Z,17.10
2022-10-07T17:32:51.790Z,17.00
2022-10-07T17:35:45.435Z,17.00
2022-10-07T17:38:41.407Z,16.90
2022-10-07T17:41:36.050Z,16.80
2022-10-07T17:44:28.220Z,16.80
2022-10-07T17:47:20.348Z,16.70
2022-10-07T17:50:15.045Z,16.80
2022-10-07T17:53:07.452Z,16.70
2022-10-07T17:55:59.895Z,16.70
2022-10-07T17:58:52.392Z,16.70
2022-10-07T18:01:45.202Z,16.70
2022-10-07T18:04:37.446Z,16.70
2022-10-07T18:07:29.688Z,16.60
2022-10-07T18:10:21.849Z,16.50
2022-10-07T18:13:32.720Z,16.40
2022-10-07T18:16:24.827Z,16.40
2022-10-07T18:19:16.932Z,16.30
2022-10-07T18:22:10.051Z,16.20
2022-10-07T18:25:03.402Z,16.10
2022-10-07T18:27:55.562Z,16.10
2022-10-07T18:30:47.762Z,16.10
2022-10-07T18:33:40.261Z,16.00
2022-10-07T18:36:32.387Z,15.90
2022-10-07T18:39:27.492Z,15.80
2022-10-07T18:42:20.920Z,15.80
2022-10-07T18:45:13.075Z,15.70
2022-10-07T18:48:05.187Z,15.60
2022-10-07T18:50:57.327Z,15.60
2022-10-07T18:53:49.476Z,15.50
2022-10-07T18:56:41.873Z,15.40
2022-10-07T18:59:34.075Z,15.40
2022-10-07T19:02:26.323Z,15.40
2022-10-07T19:05:18.501Z,15.40
2022-10-07T19:08:10.644Z,15.30
2022-10-07T19:11:11.009Z,15.30
2022-10-07T19:14:03.626Z,15.30
2022-10-07T19:16:55.776Z,15.30
2022-10-07T19:19:47.873Z,15.30
2022-10-07T19:22:40.137Z,15.30
2022-10-07T19:25:47.168Z,15.30
2022-10-07T19:28:40.423Z,15.20
2022-10-07T19:31:37.003Z,15.20
2022-10-07T19:34:29.160Z,15.10
2022-10-07T19:37:21.278Z,15.20
2022-10-07T19:40:13.400Z,15.10
2022-10-07T19:43:07.864Z,15.10
2022-10-07T19:46:01.631Z,15.00
2022-10-07T19:48:58.222Z,15.00
2022-10-07T19:51:50.333Z,15.00
2022-10-07T19:54:45.770Z,15.00
2022-10-07T19:57:37.907Z,14.90
2022-10-07T20:00:30.868Z,14.90
2022-10-07T20:03:22.983Z,14.80
2022-10-07T20:06:15.808Z,14.80
2022-10-07T20:09:10.371Z,14.80
2022-10-07T20:12:03.927Z,14.80
2022-10-07T20:14:56.044Z,14.70
2022-10-07T20:17:49.723Z,14.70
2022-10-07T20:20:43.408Z,14.70
2022-10-07T20:23:37.718Z,14.70
2022-10-07T20:26:33.236Z,14.60
2022-10-07T20:29:26.086Z,14.60
2022-10-07T20:32:18.304Z,14.40
2022-10-07T20:35:12.167Z,14.30
2022-10-07T20:38:04.349Z,14.20
2022-10-07T20:41:14.987Z,14.30
2022-10-07T20:44:07.311Z,14.20
2022-10-07T20:46:59.489Z,14.10
2022-10-07T20:49:52.258Z,14.10
2022-10-07T20:52:45.398Z,14.00
2022-10-07T20:55:37.851Z,13.90
2022-10-07T20:58:32.806Z,13.90
2022-10-07T21:01:25.781Z,13.90
2022-10-07T21:04:20.149Z,13.80
2022-10-07T21:07:13.324Z,13.80
2022-10-07T21:10:05.760Z,13.80
2022-10-07T21:12:57.889Z,13.70
2022-10-07T21:15:50.014Z,13.60
2022-10-07T21:18:42.119Z,13.50
2022-10-07T21:21:34.306Z,13.60
2022-10-07T21:24:26.420Z,13.60
2022-10-07T21:27:18.547Z,13.50
2022-10-07T21:30:10.980Z,13.50
2022-10-07T21:33:04.601Z,13.40
2022-10-07T21:36:01.161Z,13.40
2022-10-07T21:38:58.393Z,13.40
2022-10-07T21:41:50.652Z,13.30
2022-10-07T21:44:43.122Z,13.30
2022-10-07T21:47:35.305Z,13.30
2022-10-07T21:50:27.428Z,13.30
2022-10-07T21:53:19.574Z,13.10
2022-10-07T21:56:13.543Z,12.90
2022-10-07T21:59:05.674Z,12.90
2022-10-07T22:01:57.801Z,12.80
2022-10-07T22:04:49.964Z,12.80
2022-10-07T22:08:05.035Z,12.80
2022-10-07T22:11:15.029Z,12.90
2022-10-07T22:14:12.355Z,12.90
2022-10-07T22:17:04.809Z,12.90
2022-10-07T22:19:56.955Z,12.90
2022-10-07T22:22:49.420Z,12.90
2022-10-07T22:25:41.643Z,12.90
2022-10-07T22:28:37.556Z,12.90
2022-10-07T22:31:30.304Z,12.80
2022-10-07T22:34:42.824Z,12.80
2022-10-07T22:37:34.951Z,12.90
2022-10-07T22:40:27.892Z,12.90
2022-10-07T22:43:20.104Z,12.80
2022-10-07T22:46:18.091Z,12.70
2022-10-07T22:49:10.272Z,12.70
2022-10-07T22:52:02.473Z,12.70
2022-10-07T22:54:57.635Z,12.60
2022-10-07T22:57:51.199Z,12.60
2022-10-07T23:00:43.406Z,12.60
2022-10-07T23:03:40.018Z,12.50
2022-10-07T23:06:35.121Z,12.50
2022-10-07T23:09:27.245Z,12.50
2022-10-07T23:12:19.338Z,12.40
2022-10-07T23:15:11.430Z,12.40
2022-10-07T23:18:03.629Z,12.40
2022-10-07T23:21:04.185Z,12.40
2022-10-07T23:24:06.974Z,12.40
2022-10-07T23:27:00.077Z,12.40
2022-10-07T23:29:52.212Z,12.40
2022-10-07T23:32:45.938Z,12.40
2022-10-07T23:35:38.333Z,12.30
2022-10-07T23:38:30.469Z,12.30
2022-10-07T23:41:25.291Z,12.20
2022-10-07T23:44:18.327Z,12.10
2022-10-07T23:47:10.436Z,12.10
2022-10-07T23:50:02.591Z,12.20
2022-10-07T23:52:54.860Z,12.10
2022-10-07T23:55:48.710Z,11.40
2022-10-07T23:58:41.337Z,10.90
